Ryan T — WDC9570 — position and weather

sailwx.info

Track history (hours):
 
Tides and Currents Weather Stations Pressure Air Temp Water Temp Dewpoint Dewpoint Depression Visibility Wind Speed Wind Dir Waves Ship Positions

Ryan T

Owner: SO CAL SHIP SERVICES, INC, TERMINAL ISLAND, CA. More information available from US FCC via Universal Licensing System and Coast Guard Vessel Documentation Center.

Last reported at 2017-Nov-18 23:30 UTC. Time now 2017-Nov-23 16:54 UTC.
Position N 33°44' W 118°16'.

MMSI: 367104050.

Date/timePositionNaut miles runAvg speedWind from/ knotsBaromVisibWave heightAir tempDewpointWater temp
2017-Nov-18 23:30N 33°44' W 118°16'0 0.0
2017-Nov-18 22:27N 33°44' W 118°16'0 0.0
2017-Nov-18 21:54N 33°44' W 118°16'0 0.0
2017-Nov-18 21:29N 33°44' W 118°16'0 0.0
2017-Nov-18 21:00N 33°44' W 118°16'0 0.0
2017-Nov-18 20:30N 33°44' W 118°16'3 0.3
2017-Nov-18 10:32N 33°42' W 118°17'117.2
2017-Nov-18 10:30N 33°42' W 118°17'1217.6
2017-Nov-18 09:49N 33°46' W 118°31'818.0
2017-Nov-18 09:23N 33°50' W 118°39'717.4
2017-Nov-18 09:00N 33°54' W 118°45'917.7
2017-Nov-18 08:31N 33°58' W 118°55'917.5
2017-Nov-18 08:01N 34°02' W 119°04'917.1
2017-Nov-18 07:30N 34°07' W 119°12'2 2.8
2017-Nov-18 06:58N 34°09' W 119°12'0 0.0
2017-Nov-18 06:27N 34°09' W 119°12'0 0.0
2017-Nov-18 06:00N 34°09' W 119°12'0 0.0
2017-Nov-18 05:28N 34°09' W 119°12'0 0.0
2017-Nov-18 05:00N 34°09' W 119°12'0 0.0
2017-Nov-18 04:26N 34°09' W 119°12'0 0.1
2017-Nov-18 03:58N 34°09' W 119°12'3 5.4
2017-Nov-18 03:29N 34°09' W 119°15'815.8
2017-Nov-18 02:58N 34°11' W 119°25'510.2
2017-Nov-18 02:30N 34°08' W 119°20'611.6
2017-Nov-18 01:57N 34°09' W 119°12'0 0.0
2017-Nov-18 01:20N 34°09' W 119°12'0 0.0
2017-Nov-18 00:59N 34°09' W 119°12'0 0.0
2017-Nov-18 00:19N 34°09' W 119°12'3 9.9
2017-Nov-18 00:00N 34°09' W 119°16'815.5
2017-Nov-17 23:29N 34°11' W 119°25'0 0.3
2017-Nov-17 23:00N 34°11' W 119°25'2 4.1
2017-Nov-17 22:30N 34°13' W 119°26'816.2
2017-Nov-17 22:00N 34°19' W 119°32'4 7.6
2017-Nov-17 21:30N 34°23' W 119°30'1 1.9
2017-Nov-17 21:00N 34°22' W 119°31'815.1
2017-Nov-17 20:30N 34°15' W 119°28'5 9.1
2017-Nov-17 19:59N 34°11' W 119°25'4 7.9
2017-Nov-17 19:25N 34°10' W 119°20'614.5
2017-Nov-17 18:59N 34°09' W 119°12'0 0.2
2017-Nov-17 18:30N 34°09' W 119°12'2 3.1
2017-Nov-17 17:59N 34°08' W 119°14'2 4.6
2017-Nov-17 17:27N 34°07' W 119°17'0 0.1
2017-Nov-17 16:59N 34°07' W 119°17'0 0.0
2017-Nov-17 16:30N 34°07' W 119°17'0 0.1
2017-Nov-17 16:00N 34°07' W 119°17'714.0
2017-Nov-17 15:30N 34°04' W 119°09'714.8
2017-Nov-17 15:00N 34°01' W 119°01'714.6
2017-Nov-17 14:30N 33°57' W 118°54'713.9
2017-Nov-17 14:00N 33°54' W 118°46'714.3
2017-Nov-17 13:30N 33°50' W 118°39'714.5
2017-Nov-17 13:00N 33°47' W 118°31'714.0
2017-Nov-17 12:30N 33°43' W 118°24'  
Track history (hours):
 
Tides and Currents Weather Stations Pressure Air Temp Water Temp Dewpoint Dewpoint Depression Visibility Wind Speed Wind Dir Waves Ship Positions

Ryan T

Owner: SO CAL SHIP SERVICES, INC, TERMINAL ISLAND, CA. More information available from US FCC via Universal Licensing System and Coast Guard Vessel Documentation Center.

Last reported at 2017-Nov-18 23:30 UTC. Time now 2017-Nov-23 16:54 UTC.
Position N 33°44' W 118°16'.

MMSI: 367104050.

Date/timePositionNaut miles runAvg speedWind from/ knotsBaromVisibWave heightAir tempDewpointWater temp
2017-Nov-18 23:30N 33°44' W 118°16'0 0.0
2017-Nov-18 22:27N 33°44' W 118°16'0 0.0
2017-Nov-18 21:54N 33°44' W 118°16'0 0.0
2017-Nov-18 21:29N 33°44' W 118°16'0 0.0
2017-Nov-18 21:00N 33°44' W 118°16'0 0.0
2017-Nov-18 20:30N 33°44' W 118°16'3 0.3
2017-Nov-18 10:32N 33°42' W 118°17'117.2
2017-Nov-18 10:30N 33°42' W 118°17'1217.6
2017-Nov-18 09:49N 33°46' W 118°31'818.0
2017-Nov-18 09:23N 33°50' W 118°39'717.4
2017-Nov-18 09:00N 33°54' W 118°45'917.7
2017-Nov-18 08:31N 33°58' W 118°55'917.5
2017-Nov-18 08:01N 34°02' W 119°04'917.1
2017-Nov-18 07:30N 34°07' W 119°12'2 2.8
2017-Nov-18 06:58N 34°09' W 119°12'0 0.0
2017-Nov-18 06:27N 34°09' W 119°12'0 0.0
2017-Nov-18 06:00N 34°09' W 119°12'0 0.0
2017-Nov-18 05:28N 34°09' W 119°12'0 0.0
2017-Nov-18 05:00N 34°09' W 119°12'0 0.0
2017-Nov-18 04:26N 34°09' W 119°12'0 0.1
2017-Nov-18 03:58N 34°09' W 119°12'3 5.4
2017-Nov-18 03:29N 34°09' W 119°15'815.8
2017-Nov-18 02:58N 34°11' W 119°25'510.2
2017-Nov-18 02:30N 34°08' W 119°20'611.6
2017-Nov-18 01:57N 34°09' W 119°12'0 0.0
2017-Nov-18 01:20N 34°09' W 119°12'0 0.0
2017-Nov-18 00:59N 34°09' W 119°12'0 0.0
2017-Nov-18 00:19N 34°09' W 119°12'3 9.9
2017-Nov-18 00:00N 34°09' W 119°16'815.5
2017-Nov-17 23:29N 34°11' W 119°25'0 0.3
2017-Nov-17 23:00N 34°11' W 119°25'2 4.1
2017-Nov-17 22:30N 34°13' W 119°26'816.2
2017-Nov-17 22:00N 34°19' W 119°32'4 7.6
2017-Nov-17 21:30N 34°23' W 119°30'1 1.9
2017-Nov-17 21:00N 34°22' W 119°31'815.1
2017-Nov-17 20:30N 34°15' W 119°28'5 9.1
2017-Nov-17 19:59N 34°11' W 119°25'4 7.9
2017-Nov-17 19:25N 34°10' W 119°20'614.5
2017-Nov-17 18:59N 34°09' W 119°12'0 0.2
2017-Nov-17 18:30N 34°09' W 119°12'2 3.1
2017-Nov-17 17:59N 34°08' W 119°14'2 4.6
2017-Nov-17 17:27N 34°07' W 119°17'0 0.1
2017-Nov-17 16:59N 34°07' W 119°17'0 0.0
2017-Nov-17 16:30N 34°07' W 119°17'0 0.1
2017-Nov-17 16:00N 34°07' W 119°17'714.0
2017-Nov-17 15:30N 34°04' W 119°09'714.8
2017-Nov-17 15:00N 34°01' W 119°01'714.6
2017-Nov-17 14:30N 33°57' W 118°54'713.9
2017-Nov-17 14:00N 33°54' W 118°46'714.3
2017-Nov-17 13:30N 33°50' W 118°39'714.5
2017-Nov-17 13:00N 33°47' W 118°31'714.0
2017-Nov-17 12:30N 33°43' W 118°24'  

Dump ship's entire track history